首页
METAR-TAF:

METAR-TAF

机场 :

华盛顿杜勒斯国际机场

华盛顿, 弗吉尼亚州, 美国

纬度: 38-56-05N, 经度: 077-26-51W, 海拔: 95米

当前天气观测

该预报发布于13分钟前的08:52 UTC
风速3节,风向西
温度 2°C
湿度 80%
气压 1013 hPa
能見度: 16.1公里
多云层高于8500英尺

METAR: KIAD 260852Z 27003KT 10SM BKN085 02/M01 A2990 RMK AO2 SLP125 T00221011 50000

时间: 04:05 (09:05 UTC)

预报

该预报发布于22分钟前的08:43 UTC
预报有效从26日的 09点(UTC)到 27日的 12点(UTC)
风速4节,风向西转西南
能見度: 10公里
多云层高于7000英尺
从 26日的 1100点(UTC)
风速5节,风向西转西南
能見度: 10公里
散云层高于7000英尺
从 26日的 1700点(UTC)
风速9节,风向西
能見度: 10公里
多云层高于6000英尺
从 26日的 2200点(UTC)
风速8节,风向西转西北
能見度: 10公里
散云层高于7000英尺
从 27日的 0500点(UTC)
风速4节,风向西转西南
能見度: 10公里
散云层高于20000英尺

TAF: KIAD 260843Z 2609/2712 25004KT P6SM BKN070 FM261100 25005KT P6SM SCT070 FM261700 28009KT P6SM BKN060 FM262200 29008KT P6SM SCT070 FM270500 25004KT P6SM SCT200

超过4000个机场的气象观测和天气预报(METAR&TAF报告)。

可查询的气象台以黄色和红色小点在地图上表示。

将鼠标移到小点上方,可查看气象台名称。

然后点击查看天气观测和预报。

如需切换地图:点击带黑十字的绿色按钮放大地图;点击带横线的绿色按钮缩小地图;或者点击绿色箭头查看邻近地区的地图。


METAR-TAF: